createdAt,value
2018-09-09T00:00:21.922Z,16.20
2018-09-09T00:02:50.938Z,15.97
2018-09-09T00:05:20.174Z,16.80
2018-09-09T00:07:49.283Z,15.03
2018-09-09T00:10:17.925Z,16.30
2018-09-09T00:12:46.713Z,15.87
2018-09-09T00:15:15.458Z,17.63
2018-09-09T00:17:44.477Z,15.53
2018-09-09T00:20:13.234Z,15.93
2018-09-09T00:22:42.134Z,16.57
2018-09-09T00:25:11.010Z,15.80
2018-09-09T00:27:39.733Z,16.57
2018-09-09T00:30:08.836Z,16.47
2018-09-09T00:32:37.808Z,15.60
2018-09-09T00:35:07.139Z,15.97
2018-09-09T00:37:36.240Z,14.40
2018-09-09T00:40:05.020Z,15.60
2018-09-09T00:45:07.822Z,14.70
2018-09-09T00:47:36.829Z,15.27
2018-09-09T00:50:10.921Z,14.63
2018-09-09T00:52:44.942Z,14.23
2018-09-09T00:55:14.114Z,15.77
2018-09-09T00:57:42.896Z,14.27
2018-09-09T01:00:11.995Z,14.77
2018-09-09T01:02:41.027Z,15.40
2018-09-09T01:05:09.888Z,14.40
2018-09-09T01:07:38.768Z,14.33
2018-09-09T01:10:07.466Z,14.10
2018-09-09T01:12:36.330Z,14.93
2018-09-09T01:15:05.550Z,14.17
2018-09-09T01:17:34.690Z,15.27
2018-09-09T01:20:03.640Z,12.97
2018-09-09T01:22:32.433Z,14.17
2018-09-09T01:25:01.546Z,13.50
2018-09-09T01:27:30.526Z,16.03
2018-09-09T01:29:59.310Z,12.97
2018-09-09T01:32:28.250Z,14.30
2018-09-09T01:34:57.422Z,14.43
2018-09-09T01:37:26.573Z,13.23
2018-09-09T01:39:55.310Z,13.40
2018-09-09T01:42:24.168Z,14.37
2018-09-09T01:44:53.518Z,14.53
2018-09-09T01:47:22.298Z,13.40
2018-09-09T01:49:51.589Z,14.63
2018-09-09T01:52:20.871Z,14.30
2018-09-09T01:54:49.967Z,14.20
2018-09-09T01:57:18.878Z,14.90
2018-09-09T01:59:47.639Z,14.63
2018-09-09T02:02:16.427Z,15.03
2018-09-09T02:04:45.426Z,14.90
2018-09-09T02:07:14.778Z,15.60
2018-09-09T02:09:43.414Z,17.40
2018-09-09T02:12:12.088Z,17.07
2018-09-09T02:14:40.922Z,15.53
2018-09-09T02:17:09.872Z,16.30
2018-09-09T02:19:38.667Z,15.53
2018-09-09T02:22:07.680Z,15.67
2018-09-09T02:24:36.806Z,16.07
2018-09-09T02:27:05.995Z,16.00
2018-09-09T02:29:34.895Z,16.03
2018-09-09T02:32:03.920Z,16.23
2018-09-09T02:34:32.852Z,16.93
2018-09-09T02:37:01.690Z,16.07
2018-09-09T02:39:30.456Z,15.47
2018-09-09T02:41:59.192Z,14.77
2018-09-09T02:44:28.459Z,15.00
2018-09-09T02:46:57.403Z,14.70
2018-09-09T02:49:26.385Z,15.03
2018-09-09T02:51:55.190Z,15.80
2018-09-09T02:54:24.409Z,16.97
2018-09-09T02:56:53.338Z,16.50
2018-09-09T02:59:22.207Z,16.07
2018-09-09T03:01:51.154Z,16.33
2018-09-09T03:04:20.279Z,16.60
2018-09-09T03:06:49.239Z,16.90
2018-09-09T03:09:18.416Z,16.17
2018-09-09T03:11:47.035Z,15.67
2018-09-09T03:14:15.920Z,16.33
2018-09-09T03:16:45.075Z,16.83
2018-09-09T03:19:13.754Z,16.87
2018-09-09T03:21:42.811Z,16.27
2018-09-09T03:24:11.863Z,17.20
2018-09-09T03:26:40.776Z,18.10
2018-09-09T03:29:09.892Z,22.20
2018-09-09T03:31:38.889Z,18.53
2018-09-09T03:34:07.697Z,18.10
2018-09-09T03:36:36.457Z,17.50
2018-09-09T03:39:06.202Z,17.27
2018-09-09T03:41:34.930Z,18.53
2018-09-09T03:44:03.997Z,17.93
2018-09-09T03:46:33.363Z,18.70
2018-09-09T03:49:02.193Z,16.53
2018-09-09T03:51:31.139Z,18.27
2018-09-09T03:53:59.982Z,16.80
2018-09-09T03:56:28.972Z,18.53
2018-09-09T03:58:58.242Z,17.80
2018-09-09T04:01:27.018Z,19.40
2018-09-09T04:03:56.062Z,19.17
2018-09-09T04:06:25.312Z,17.07
2018-09-09T04:08:54.155Z,18.97
2018-09-09T04:11:23.036Z,16.97
2018-09-09T04:13:52.037Z,17.77
2018-09-09T04:16:20.958Z,18.07
2018-09-09T04:18:50.087Z,18.63
2018-09-09T04:21:18.974Z,19.70
2018-09-09T04:23:47.850Z,19.17
2018-09-09T04:26:16.793Z,18.17
2018-09-09T04:28:45.734Z,18.70
2018-09-09T04:31:15.021Z,18.03
2018-09-09T04:33:44.094Z,15.77
2018-09-09T04:36:12.962Z,18.23
2018-09-09T04:38:41.735Z,17.43
2018-09-09T04:41:10.454Z,17.03
2018-09-09T04:43:39.291Z,17.83
2018-09-09T04:46:08.459Z,18.13
2018-09-09T04:48:37.550Z,17.67
2018-09-09T04:51:06.603Z,18.10
2018-09-09T04:53:35.689Z,16.27
2018-09-09T04:56:04.431Z,18.77
2018-09-09T04:58:33.399Z,18.23
2018-09-09T05:01:02.523Z,18.40
2018-09-09T05:03:31.441Z,17.30
2018-09-09T05:06:00.351Z,18.80
2018-09-09T05:08:28.960Z,17.93
2018-09-09T05:10:57.705Z,17.40
2018-09-09T05:13:26.910Z,17.47
2018-09-09T05:15:55.749Z,16.53
2018-09-09T05:18:24.534Z,17.80
2018-09-09T05:20:53.816Z,17.47
2018-09-09T05:23:22.599Z,17.40
2018-09-09T05:25:51.505Z,17.20
2018-09-09T05:28:20.523Z,18.00
2018-09-09T05:30:49.467Z,18.23
2018-09-09T05:33:18.294Z,17.57
2018-09-09T05:35:47.264Z,17.77
2018-09-09T05:38:16.461Z,18.03
2018-09-09T05:40:45.233Z,17.30
2018-09-09T05:43:14.032Z,17.30
2018-09-09T05:45:42.897Z,16.10
2018-09-09T05:48:11.754Z,16.77
2018-09-09T05:50:40.854Z,17.43
2018-09-09T05:53:10.049Z,16.87
2018-09-09T05:55:38.853Z,16.37
2018-09-09T05:58:08.420Z,16.63
2018-09-09T06:00:37.457Z,17.17
2018-09-09T06:03:06.731Z,16.30
2018-09-09T06:05:35.439Z,17.23
2018-09-09T06:08:04.147Z,16.10
2018-09-09T06:10:32.998Z,16.37
2018-09-09T06:13:02.054Z,16.47
2018-09-09T06:15:30.978Z,17.20
2018-09-09T06:18:00.041Z,16.47
2018-09-09T06:20:28.888Z,15.60
2018-09-09T06:22:57.839Z,15.87
2018-09-09T06:25:26.878Z,17.80
2018-09-09T06:27:56.058Z,16.87
2018-09-09T06:30:25.067Z,16.27
2018-09-09T06:32:54.321Z,15.17
2018-09-09T06:35:23.263Z,15.67
2018-09-09T06:37:52.165Z,17.47
2018-09-09T06:40:21.100Z,15.73
2018-09-09T06:42:50.266Z,16.70
2018-09-09T06:45:19.565Z,15.57
2018-09-09T06:47:48.813Z,16.43
2018-09-09T06:50:18.081Z,14.77
2018-09-09T06:52:47.242Z,16.57
2018-09-09T06:55:16.137Z,16.13
2018-09-09T06:57:45.280Z,15.57
2018-09-09T07:00:14.064Z,15.93
2018-09-09T07:02:43.105Z,14.77
2018-09-09T07:05:14.720Z,14.87
2018-09-09T07:07:43.532Z,14.20
2018-09-09T07:10:12.578Z,15.30
2018-09-09T07:12:41.562Z,15.93
2018-09-09T07:15:10.689Z,15.17
2018-09-09T07:17:39.705Z,16.03
2018-09-09T07:20:08.931Z,13.53
2018-09-09T07:22:38.219Z,13.43
2018-09-09T07:25:07.548Z,14.33
2018-09-09T07:27:36.816Z,16.77
2018-09-09T07:30:06.197Z,15.50
2018-09-09T07:32:35.449Z,14.90
2018-09-09T07:35:04.407Z,13.83
2018-09-09T07:37:34.086Z,16.30
2018-09-09T07:40:03.259Z,14.90
2018-09-09T07:42:32.042Z,14.20
2018-09-09T07:45:01.337Z,11.50
2018-09-09T07:47:30.300Z,12.20
2018-09-09T07:49:59.356Z,12.00
2018-09-09T07:52:28.603Z,12.23
2018-09-09T07:54:57.861Z,11.60
2018-09-09T07:57:27.266Z,12.77
2018-09-09T07:59:56.359Z,11.63
2018-09-09T08:02:25.495Z,11.93
2018-09-09T08:04:54.343Z,13.43
2018-09-09T08:07:23.027Z,13.20
2018-09-09T08:09:51.872Z,12.17
2018-09-09T08:12:20.712Z,11.93
2018-09-09T08:14:49.760Z,11.30
2018-09-09T08:17:18.633Z,10.67
2018-09-09T08:19:47.578Z,11.10
2018-09-09T08:22:16.551Z,12.37
2018-09-09T08:24:45.730Z,12.20
2018-09-09T08:27:14.734Z,11.73
2018-09-09T08:29:43.707Z,11.97
2018-09-09T08:32:12.921Z,11.63
2018-09-09T08:34:41.900Z,11.00
2018-09-09T08:37:10.654Z,10.93
2018-09-09T08:39:39.665Z,9.58
2018-09-09T08:42:08.512Z,11.23
2018-09-09T08:44:37.690Z,10.30
2018-09-09T08:47:06.776Z,11.63
2018-09-09T08:49:35.648Z,10.23
2018-09-09T08:52:04.710Z,10.50
2018-09-09T08:54:33.506Z,10.73
2018-09-09T08:57:02.409Z,10.00
2018-09-09T08:59:31.322Z,11.22
2018-09-09T09:02:00.417Z,10.27
2018-09-09T09:04:29.152Z,12.00
2018-09-09T09:06:57.998Z,11.07
2018-09-09T09:09:26.936Z,10.90
2018-09-09T09:11:55.993Z,10.73
2018-09-09T09:14:24.984Z,10.27
2018-09-09T09:16:54.437Z,10.37
2018-09-09T09:19:23.373Z,10.27
2018-09-09T09:21:52.471Z,10.07
2018-09-09T09:24:21.311Z,9.08
2018-09-09T09:26:50.594Z,9.63
2018-09-09T09:29:19.546Z,9.85
2018-09-09T09:31:48.436Z,10.38
2018-09-09T09:34:17.306Z,10.38
2018-09-09T09:36:46.098Z,10.68
2018-09-09T09:39:15.110Z,11.43
2018-09-09T09:41:44.231Z,10.55
2018-09-09T09:44:13.364Z,10.10
2018-09-09T09:46:42.370Z,10.90
2018-09-09T09:49:11.540Z,10.63
2018-09-09T09:51:40.803Z,10.80
2018-09-09T09:54:09.926Z,9.80
2018-09-09T09:56:38.831Z,10.48
2018-09-09T09:59:07.881Z,9.75
2018-09-09T10:01:36.598Z,9.90
2018-09-09T10:04:05.307Z,11.00
2018-09-09T10:06:34.043Z,10.25
2018-09-09T10:09:03.544Z,9.73
2018-09-09T10:11:32.608Z,10.55
2018-09-09T10:14:01.743Z,10.15
2018-09-09T10:16:31.187Z,10.03
2018-09-09T10:19:00.254Z,9.35
2018-09-09T10:21:29.346Z,9.68
2018-09-09T10:23:58.286Z,10.60
2018-09-09T10:26:27.615Z,10.28
2018-09-09T10:28:56.538Z,10.08
2018-09-09T10:31:25.252Z,10.58
2018-09-09T10:33:53.974Z,10.78
2018-09-09T10:36:22.681Z,10.45
2018-09-09T10:38:52.001Z,10.20
2018-09-09T10:41:20.903Z,9.60
2018-09-09T10:43:49.868Z,9.40
2018-09-09T10:46:18.716Z,9.38
2018-09-09T10:48:47.795Z,9.75
2018-09-09T10:51:16.758Z,9.88
2018-09-09T10:53:45.682Z,9.60
2018-09-09T10:56:14.830Z,9.40
2018-09-09T10:58:43.680Z,9.75
2018-09-09T11:01:12.648Z,10.45
2018-09-09T11:03:41.344Z,9.20
2018-09-09T11:06:10.006Z,10.48
2018-09-09T11:08:38.806Z,11.43
2018-09-09T11:11:07.842Z,9.93
2018-09-09T11:13:36.790Z,10.25
2018-09-09T11:16:05.867Z,10.18
2018-09-09T11:18:34.885Z,9.43
2018-09-09T11:21:07.870Z,9.38
2018-09-09T11:23:37.467Z,9.88
2018-09-09T11:26:06.646Z,9.58
2018-09-09T11:28:36.112Z,9.18
2018-09-09T11:31:04.846Z,10.53
2018-09-09T11:33:33.600Z,11.55
2018-09-09T11:36:02.361Z,11.30
2018-09-09T11:38:31.037Z,11.22
2018-09-09T11:40:59.991Z,10.75
2018-09-09T11:43:29.180Z,10.23
2018-09-09T11:45:58.217Z,10.88
2018-09-09T11:48:27.301Z,10.08
2018-09-09T11:50:56.555Z,10.15
2018-09-09T11:53:25.617Z,9.43
2018-09-09T11:55:54.624Z,9.88
2018-09-09T11:58:23.351Z,9.93
2018-09-09T12:00:52.211Z,10.20
2018-09-09T12:03:20.939Z,11.40
2018-09-09T12:05:49.603Z,12.13
2018-09-09T12:08:18.734Z,11.25
2018-09-09T12:10:47.750Z,13.35
2018-09-09T12:13:16.687Z,12.90
2018-09-09T12:15:45.543Z,11.97
2018-09-09T12:18:14.532Z,11.68
2018-09-09T12:20:43.588Z,12.50
2018-09-09T12:23:12.518Z,11.48
2018-09-09T12:25:41.508Z,12.05
2018-09-09T12:28:10.419Z,11.55
2018-09-09T12:30:39.134Z,9.55
2018-09-09T12:33:07.939Z,9.55
2018-09-09T12:35:36.630Z,9.63
2018-09-09T12:38:05.550Z,8.90
2018-09-09T12:40:34.353Z,9.43
2018-09-09T12:43:08.556Z,8.88
2018-09-09T12:45:42.842Z,10.90
2018-09-09T12:48:16.940Z,7.75
2018-09-09T12:50:46.246Z,8.83
2018-09-09T12:53:15.312Z,8.90
2018-09-09T12:55:44.315Z,8.63
2018-09-09T12:58:13.113Z,8.00
2018-09-09T13:00:41.895Z,7.92
2018-09-09T13:03:10.694Z,7.53
2018-09-09T13:05:39.643Z,8.13
2018-09-09T13:08:09.030Z,7.33
2018-09-09T13:10:38.274Z,7.47
2018-09-09T13:13:12.666Z,8.10
2018-09-09T13:15:41.776Z,7.78
2018-09-09T13:18:10.775Z,7.37
2018-09-09T13:20:39.567Z,12.55
2018-09-09T13:23:08.873Z,7.58
2018-09-09T13:25:37.633Z,8.10
2018-09-09T13:28:06.527Z,7.58
2018-09-09T13:30:35.518Z,8.00
2018-09-09T13:33:04.290Z,8.53
2018-09-09T13:35:33.390Z,8.10
2018-09-09T13:38:02.270Z,10.05
2018-09-09T13:40:31.210Z,9.15
2018-09-09T13:43:00.368Z,9.73
2018-09-09T13:45:29.397Z,9.00
2018-09-09T13:47:58.540Z,10.55
2018-09-09T13:50:27.488Z,10.48
2018-09-09T13:52:56.427Z,21.65
2018-09-09T13:55:25.333Z,11.80
2018-09-09T13:57:54.510Z,11.37
2018-09-09T14:00:23.331Z,11.87
2018-09-09T14:02:52.154Z,10.07
2018-09-09T14:05:21.230Z,11.23
2018-09-09T14:07:50.022Z,10.00
2018-09-09T14:10:19.191Z,11.97
2018-09-09T14:12:48.132Z,12.13
2018-09-09T14:15:17.535Z,10.97
2018-09-09T14:17:46.776Z,7.97
2018-09-09T14:20:15.826Z,7.03
2018-09-09T14:22:45.140Z,6.62
2018-09-09T14:25:14.212Z,9.18
2018-09-09T14:27:43.074Z,7.78
2018-09-09T14:30:11.763Z,7.45
2018-09-09T14:32:40.564Z,7.40
2018-09-09T14:35:09.380Z,6.28
2018-09-09T14:37:38.364Z,6.87
2018-09-09T14:40:07.436Z,6.60
2018-09-09T14:42:36.328Z,5.70
2018-09-09T14:45:05.204Z,6.42
2018-09-09T14:47:34.447Z,5.50
2018-09-09T14:50:03.449Z,5.05
2018-09-09T14:52:32.252Z,5.15
2018-09-09T14:55:01.323Z,4.92
2018-09-09T14:57:30.300Z,4.70
2018-09-09T14:59:58.918Z,5.12
2018-09-09T15:02:27.742Z,5.33
2018-09-09T15:04:56.407Z,4.95
2018-09-09T15:07:25.208Z,4.63
2018-09-09T15:09:54.192Z,4.77
2018-09-09T15:12:22.980Z,4.22
2018-09-09T15:14:51.958Z,4.37
2018-09-09T15:17:21.274Z,4.28
2018-09-09T15:19:50.228Z,5.03
2018-09-09T15:22:19.105Z,4.60
2018-09-09T15:24:47.895Z,5.25
2018-09-09T15:27:16.706Z,4.85
2018-09-09T15:29:45.718Z,5.37
2018-09-09T15:32:14.599Z,5.37
2018-09-09T15:34:43.526Z,5.83
2018-09-09T15:37:12.467Z,5.65
2018-09-09T15:39:41.336Z,5.35
2018-09-09T15:42:10.281Z,5.60
2018-09-09T15:44:39.486Z,5.62
2018-09-09T15:47:08.473Z,5.85
2018-09-09T15:49:37.329Z,5.92
2018-09-09T15:52:06.149Z,6.90
2018-09-09T15:54:34.883Z,5.47
2018-09-09T15:57:03.826Z,5.67
2018-09-09T15:59:32.656Z,5.55
2018-09-09T16:02:01.489Z,6.45
2018-09-09T16:04:30.550Z,6.65
2018-09-09T16:06:59.533Z,6.20
2018-09-09T16:09:28.497Z,5.43
2018-09-09T16:11:57.595Z,6.37
2018-09-09T16:14:26.656Z,5.97
2018-09-09T16:16:57.879Z,6.30
2018-09-09T16:19:26.940Z,5.70
2018-09-09T16:21:56.028Z,6.30
2018-09-09T16:24:25.322Z,6.97
2018-09-09T16:26:54.125Z,6.53
2018-09-09T16:29:22.893Z,7.17
2018-09-09T16:31:51.682Z,7.80
2018-09-09T16:34:20.723Z,6.93
2018-09-09T16:36:49.972Z,7.37
2018-09-09T16:39:18.968Z,9.00
2018-09-09T16:41:48.190Z,8.77
2018-09-09T16:44:17.136Z,8.20
2018-09-09T16:46:46.252Z,7.27
2018-09-09T16:49:15.515Z,7.07
2018-09-09T16:51:44.701Z,7.73
2018-09-09T16:54:13.747Z,6.70
2018-09-09T16:56:42.561Z,7.47
2018-09-09T16:59:11.344Z,6.47
2018-09-09T17:01:40.348Z,6.70
2018-09-09T17:04:09.356Z,6.77
2018-09-09T17:06:38.225Z,6.53
2018-09-09T17:09:09.946Z,6.80
2018-09-09T17:11:39.048Z,6.77
2018-09-09T17:14:08.130Z,5.93
2018-09-09T17:16:37.202Z,7.00
2018-09-09T17:19:06.014Z,7.13
2018-09-09T17:21:34.943Z,6.80
2018-09-09T17:24:04.054Z,6.87
2018-09-09T17:26:33.255Z,6.43
2018-09-09T17:29:02.045Z,6.83
2018-09-09T17:31:30.822Z,6.33
2018-09-09T17:33:59.968Z,6.20
2018-09-09T17:36:29.115Z,6.40
2018-09-09T17:38:58.271Z,6.87
2018-09-09T17:41:27.031Z,6.63
2018-09-09T17:43:56.147Z,6.00
2018-09-09T17:46:24.842Z,6.43
2018-09-09T17:48:53.921Z,6.20
2018-09-09T17:51:22.835Z,5.70
2018-09-09T17:53:51.911Z,5.27
2018-09-09T17:56:20.690Z,6.40
2018-09-09T17:58:49.619Z,6.10
2018-09-09T18:01:18.486Z,5.30
2018-09-09T18:03:47.687Z,6.20
2018-09-09T18:06:16.592Z,6.10
2018-09-09T18:08:45.591Z,5.37
2018-09-09T18:11:14.704Z,5.93
2018-09-09T18:13:43.810Z,5.33
2018-09-09T18:16:12.651Z,6.43
2018-09-09T18:18:41.558Z,5.47
2018-09-09T18:21:10.659Z,5.93
2018-09-09T18:23:39.915Z,6.30
2018-09-09T18:26:08.663Z,6.00
2018-09-09T18:28:37.515Z,6.13
2018-09-09T18:31:06.367Z,5.50
2018-09-09T18:33:35.280Z,5.30
2018-09-09T18:36:04.150Z,6.07
2018-09-09T18:38:33.064Z,5.57
2018-09-09T18:41:01.812Z,5.40
2018-09-09T18:43:30.670Z,5.23
2018-09-09T18:45:59.411Z,5.17
2018-09-09T18:48:28.463Z,5.40
2018-09-09T18:50:57.653Z,5.20
2018-09-09T18:53:26.490Z,6.07
2018-09-09T18:55:55.246Z,5.13
2018-09-09T18:58:24.110Z,5.40
2018-09-09T19:00:52.990Z,6.13
2018-09-09T19:03:21.803Z,6.00
2018-09-09T19:05:50.733Z,6.27
2018-09-09T19:08:19.534Z,7.40
2018-09-09T19:10:48.844Z,9.30
2018-09-09T19:13:17.731Z,9.63
2018-09-09T19:15:46.781Z,8.43
2018-09-09T19:18:16.054Z,7.93
2018-09-09T19:20:45.141Z,6.57
2018-09-09T19:23:14.059Z,6.03
2018-09-09T19:25:42.785Z,5.87
2018-09-09T19:28:11.391Z,5.67
2018-09-09T19:30:40.096Z,5.43
2018-09-09T19:33:09.219Z,5.67
2018-09-09T19:35:38.467Z,6.03
2018-09-09T19:38:07.635Z,5.40
2018-09-09T19:40:36.884Z,5.07
2018-09-09T19:43:05.617Z,4.93
2018-09-09T19:45:34.747Z,5.30
2018-09-09T19:48:03.791Z,4.90
2018-09-09T19:50:33.055Z,5.57
2018-09-09T19:53:01.933Z,5.67
2018-09-09T19:55:30.622Z,5.90
2018-09-09T19:57:59.295Z,5.13
2018-09-09T20:00:28.245Z,4.97
2018-09-09T20:02:57.263Z,5.37
2018-09-09T20:05:26.438Z,5.10
2018-09-09T20:07:55.590Z,5.70
2018-09-09T20:10:24.542Z,5.27
2018-09-09T20:12:53.617Z,5.50
2018-09-09T20:15:22.503Z,5.20
2018-09-09T20:17:51.431Z,5.53
2018-09-09T20:20:20.311Z,5.30
2018-09-09T20:22:49.243Z,5.67
2018-09-09T20:25:18.271Z,4.97
2018-09-09T20:27:47.001Z,6.23
2018-09-09T20:30:15.982Z,5.67
2018-09-09T20:32:45.042Z,5.40
2018-09-09T20:35:13.968Z,5.50
2018-09-09T20:37:42.885Z,6.67
2018-09-09T20:40:11.852Z,5.67
2018-09-09T20:42:40.655Z,5.30
2018-09-09T20:45:09.494Z,5.47
2018-09-09T20:47:38.433Z,6.90
2018-09-09T20:50:07.447Z,5.50
2018-09-09T20:52:36.778Z,5.27
2018-09-09T20:55:05.980Z,6.30
2018-09-09T20:57:34.630Z,6.63
2018-09-09T21:00:03.558Z,5.77
2018-09-09T21:02:32.564Z,6.23
2018-09-09T21:05:01.751Z,5.93
2018-09-09T21:07:30.767Z,5.80
2018-09-09T21:09:59.751Z,5.83
2018-09-09T21:12:28.911Z,6.27
2018-09-09T21:14:58.099Z,6.53
2018-09-09T21:17:27.045Z,5.83
2018-09-09T21:19:55.857Z,6.37
2018-09-09T21:22:25.888Z,5.93
2018-09-09T21:24:54.600Z,6.00
2018-09-09T21:27:23.375Z,5.97
2018-09-09T21:29:52.128Z,7.00
2018-09-09T21:32:21.423Z,6.17
2018-09-09T21:34:50.381Z,6.33
2018-09-09T21:37:19.298Z,6.40
2018-09-09T21:39:48.327Z,6.17
2018-09-09T21:42:17.426Z,6.03
2018-09-09T21:44:46.490Z,6.43
2018-09-09T21:47:15.331Z,6.37
2018-09-09T21:49:44.197Z,6.17
2018-09-09T21:52:12.876Z,5.83
2018-09-09T21:54:41.747Z,6.30
2018-09-09T21:57:10.527Z,6.47
2018-09-09T21:59:39.376Z,7.40
2018-09-09T22:02:09.388Z,6.53
2018-09-09T22:04:38.894Z,6.80
2018-09-09T22:07:11.162Z,7.10
2018-09-09T22:09:40.771Z,6.67
2018-09-09T22:12:10.663Z,6.23
2018-09-09T22:14:39.990Z,7.20
2018-09-09T22:17:09.802Z,7.40
2018-09-09T22:19:38.789Z,8.03
2018-09-09T22:22:07.539Z,7.40
2018-09-09T22:24:42.814Z,6.90
2018-09-09T22:27:11.596Z,6.83
2018-09-09T22:29:40.719Z,7.27
2018-09-09T22:32:09.675Z,6.70
2018-09-09T22:34:38.874Z,6.80
2018-09-09T22:37:07.654Z,7.07
2018-09-09T22:39:36.690Z,6.97
2018-09-09T22:42:05.991Z,7.03
2018-09-09T22:44:34.864Z,8.10
2018-09-09T22:47:04.068Z,7.27
2018-09-09T22:49:33.031Z,6.97
2018-09-09T22:52:01.795Z,6.67
2018-09-09T22:54:30.562Z,7.00
2018-09-09T22:56:59.293Z,8.40
2018-09-09T22:59:28.068Z,7.57
2018-09-09T23:01:57.007Z,7.37
2018-09-09T23:04:25.928Z,7.87
2018-09-09T23:06:54.848Z,7.83
2018-09-09T23:09:23.976Z,8.13
2018-09-09T23:11:53.056Z,8.00
2018-09-09T23:14:21.866Z,7.67
2018-09-09T23:16:51.170Z,8.17
2018-09-09T23:19:20.580Z,7.67
2018-09-09T23:21:49.168Z,7.97
2018-09-09T23:24:17.906Z,8.30
2018-09-09T23:26:46.712Z,7.50
2018-09-09T23:29:15.843Z,8.03
2018-09-09T23:31:44.851Z,7.77
2018-09-09T23:34:13.946Z,8.63
2018-09-09T23:36:42.975Z,7.13
2018-09-09T23:39:12.550Z,7.87
2018-09-09T23:41:41.385Z,7.90
2018-09-09T23:44:10.226Z,7.77
2018-09-09T23:46:39.178Z,8.47
2018-09-09T23:49:08.554Z,8.37
2018-09-09T23:51:37.374Z,7.73
2018-09-09T23:54:06.170Z,7.77
2018-09-09T23:56:35.002Z,7.77
2018-09-09T23:59:03.896Z,8.20
